createdAt,value
2023-01-22T00:02:32.336Z,102331.41
2023-01-22T00:05:34.333Z,102329.22
2023-01-22T00:08:37.187Z,102329.56
2023-01-22T00:11:38.476Z,102328.69
2023-01-22T00:14:41.441Z,102329.00
2023-01-22T00:17:42.744Z,102329.16
2023-01-22T00:20:48.946Z,102324.59
2023-01-22T00:23:51.509Z,102331.06
2023-01-22T00:26:52.802Z,102329.53
2023-01-22T00:29:55.316Z,102339.38
2023-01-22T00:32:56.595Z,102328.53
2023-01-22T00:36:05.351Z,102336.97
2023-01-22T00:39:07.942Z,102345.28
2023-01-22T00:42:09.215Z,102330.88
2023-01-22T00:45:14.577Z,102334.63
2023-01-22T00:48:15.842Z,102331.38
2023-01-22T00:51:19.499Z,102336.28
2023-01-22T00:54:22.060Z,102330.56
2023-01-22T00:57:23.507Z,102338.81
2023-01-22T01:00:26.270Z,102342.06
2023-01-22T01:03:29.538Z,102336.09
2023-01-22T01:06:32.839Z,102338.44
2023-01-22T01:09:35.438Z,102336.09
2023-01-22T01:12:36.712Z,102331.03
2023-01-22T01:15:39.496Z,102337.81
2023-01-22T01:18:40.999Z,102328.50
2023-01-22T01:21:44.897Z,102335.44
2023-01-22T01:24:47.412Z,102337.81
2023-01-22T01:27:48.677Z,102335.09
2023-01-22T01:30:51.269Z,102331.06
2023-01-22T01:33:52.814Z,102341.53
2023-01-22T01:40:15.976Z,102337.63
2023-01-22T01:43:19.110Z,102343.00
2023-01-22T01:46:25.978Z,102349.53
2023-01-22T01:49:33.054Z,102344.91
2023-01-22T01:52:37.049Z,102344.69
2023-01-22T02:05:46.025Z,102366.50
2023-01-22T02:08:51.178Z,102365.16
2023-01-22T02:11:54.639Z,102362.28
2023-01-22T02:14:56.302Z,102370.41
2023-01-22T02:17:58.845Z,102378.34
2023-01-22T02:21:01.044Z,102376.66
2023-01-22T02:24:04.599Z,102383.44
2023-01-22T02:27:05.892Z,102385.31
2023-01-22T02:30:09.704Z,102382.53
2023-01-22T02:33:11.349Z,102380.31
2023-01-22T02:36:14.631Z,102388.28
2023-01-22T02:39:17.154Z,102380.69
2023-01-22T02:42:18.541Z,102384.03
2023-01-22T02:45:21.099Z,102390.63
2023-01-22T02:48:22.360Z,102380.09
2023-01-22T02:51:27.084Z,102374.69
2023-01-22T02:54:29.615Z,102377.78
2023-01-22T02:57:31.882Z,102365.09
2023-01-22T03:00:34.526Z,102368.13
2023-01-22T03:03:35.847Z,102368.44
2023-01-22T03:06:41.360Z,102364.03
2023-01-22T03:09:42.826Z,102368.44
2023-01-22T03:13:05.644Z,102365.53
2023-01-22T03:16:25.571Z,102367.06
2023-01-22T03:19:46.786Z,102368.06
2023-01-22T03:22:48.906Z,102375.00
2023-01-22T03:25:57.094Z,102377.41
2023-01-22T03:28:59.605Z,102372.81
2023-01-22T03:32:00.953Z,102375.00
2023-01-22T03:35:03.567Z,102381.09
2023-01-22T03:38:07.097Z,102380.69
2023-01-22T03:41:12.436Z,102385.34
2023-01-22T03:44:14.464Z,102390.63
2023-01-22T03:47:18.441Z,102384.88
2023-01-22T03:50:20.306Z,102392.50
2023-01-22T03:53:23.709Z,102391.00
2023-01-22T03:56:27.133Z,102402.09
2023-01-22T03:59:28.454Z,102397.03
2023-01-22T04:02:31.104Z,102397.75
2023-01-22T04:05:33.730Z,102401.25
2023-01-22T04:11:58.883Z,102396.34
2023-01-22T04:15:00.177Z,102416.19
2023-01-22T04:18:02.682Z,102397.91
2023-01-22T04:21:06.290Z,102401.97
2023-01-22T04:24:08.329Z,102404.63
2023-01-22T04:30:30.640Z,102401.50
2023-01-22T04:33:33.352Z,102402.84
2023-01-22T04:36:34.631Z,102400.63
2023-01-22T04:39:36.583Z,102401.81
2023-01-22T04:42:39.127Z,102412.28
2023-01-22T04:45:40.415Z,102408.44
2023-01-22T04:48:43.023Z,102415.69
2023-01-22T04:51:44.423Z,102406.53
2023-01-22T04:54:47.589Z,102417.53
2023-01-22T04:57:48.896Z,102416.13
2023-01-22T05:00:50.284Z,102418.38
2023-01-22T05:03:53.088Z,102435.31
2023-01-22T05:06:54.427Z,102448.00
2023-01-22T05:09:56.436Z,102448.63
2023-01-22T05:13:01.647Z,102453.56
2023-01-22T05:16:03.465Z,102456.47
2023-01-22T05:22:25.414Z,102459.19
2023-01-22T05:25:27.916Z,102462.91
2023-01-22T05:28:29.248Z,102469.44
2023-01-22T05:31:31.804Z,102464.81
2023-01-22T05:34:37.795Z,102471.53
2023-01-22T05:37:40.321Z,102462.22
2023-01-22T05:40:43.476Z,102477.28
2023-01-22T05:43:45.052Z,102473.22
2023-01-22T05:46:47.586Z,102470.69
2023-01-22T05:49:48.859Z,102484.81
2023-01-22T05:52:54.144Z,102475.22
2023-01-22T05:56:00.787Z,102481.44
2023-01-22T05:59:02.076Z,102483.81
2023-01-22T06:02:03.485Z,102488.78
2023-01-22T06:05:05.855Z,102489.28
2023-01-22T06:08:08.920Z,102496.78
2023-01-22T06:11:14.449Z,102496.56
2023-01-22T06:14:15.940Z,102499.13
2023-01-22T06:17:18.575Z,102498.91
2023-01-22T06:20:20.126Z,102498.09
2023-01-22T06:23:22.671Z,102503.47
2023-01-22T06:26:24.915Z,102517.75
2023-01-22T06:29:27.542Z,102506.47
2023-01-22T06:32:30.163Z,102505.69
2023-01-22T06:35:31.469Z,102516.38
2023-01-22T06:38:32.883Z,102516.38
2023-01-22T06:41:35.021Z,102523.03
2023-01-22T06:44:37.659Z,102520.69
2023-01-22T06:47:43.174Z,102530.53
2023-01-22T06:50:44.711Z,102529.91
2023-01-22T06:53:47.499Z,102527.34
2023-01-22T06:56:49.537Z,102528.22
2023-01-22T06:59:52.170Z,102525.59
2023-01-22T07:02:55.276Z,102530.16
2023-01-22T07:05:57.593Z,102526.09
2023-01-22T07:09:00.254Z,102524.81
2023-01-22T07:12:02.291Z,102531.53
2023-01-22T07:15:06.079Z,102532.00
2023-01-22T07:18:07.490Z,102536.41
2023-01-22T07:21:11.208Z,102535.84
2023-01-22T07:27:35.245Z,102552.94
2023-01-22T07:34:01.680Z,102552.41
2023-01-22T07:37:04.456Z,102553.56
2023-01-22T07:40:08.308Z,102571.88
2023-01-22T07:43:14.209Z,102567.03
2023-01-22T07:46:16.941Z,102570.09
2023-01-22T07:49:19.634Z,102569.25
2023-01-22T07:52:21.189Z,102580.00
2023-01-22T07:55:24.261Z,102580.63
2023-01-22T07:58:26.267Z,102587.44
2023-01-22T08:04:49.677Z,102598.81
2023-01-22T08:07:51.070Z,102597.97
2023-01-22T08:10:53.692Z,102602.88
2023-01-22T08:13:55.698Z,102603.44
2023-01-22T08:16:57.004Z,102605.00
2023-01-22T08:19:58.364Z,102611.25
2023-01-22T08:23:00.330Z,102612.38
2023-01-22T08:26:03.491Z,102614.25
2023-01-22T08:32:26.975Z,102607.47
2023-01-22T08:35:29.677Z,102605.69
2023-01-22T08:38:30.975Z,102609.06
2023-01-22T08:41:33.558Z,102608.06
2023-01-22T08:44:35.504Z,102613.47
2023-01-22T08:47:38.134Z,102616.13
2023-01-22T08:50:40.718Z,102615.00
2023-01-22T08:53:43.504Z,102620.34
2023-01-22T08:56:48.598Z,102624.47
2023-01-22T09:00:00.826Z,102627.78
2023-01-22T09:03:02.765Z,102628.66
2023-01-22T09:06:05.728Z,102636.94
2023-01-22T09:09:07.387Z,102631.91
2023-01-22T09:12:09.921Z,102643.81
2023-01-22T09:15:12.184Z,102656.50
2023-01-22T09:18:14.722Z,102660.38
2023-01-22T09:21:15.996Z,102658.31
2023-01-22T09:24:18.501Z,102659.69
2023-01-22T09:27:21.231Z,102662.34
2023-01-22T09:30:25.603Z,102661.91
2023-01-22T09:33:28.107Z,102668.94
2023-01-22T09:36:30.991Z,102664.09
2023-01-22T09:39:32.303Z,102664.47
2023-01-22T09:42:37.987Z,102677.84
2023-01-22T09:45:40.914Z,102682.50
2023-01-22T09:48:47.484Z,102678.56
2023-01-22T09:51:53.379Z,102682.81
2023-01-22T09:54:56.777Z,102669.81
2023-01-22T09:58:03.687Z,102675.00
2023-01-22T10:01:06.717Z,102680.72
2023-01-22T10:04:24.204Z,102675.16
2023-01-22T10:07:30.332Z,102676.41
2023-01-22T10:10:33.399Z,102677.31
2023-01-22T10:13:36.702Z,102681.50
2023-01-22T10:16:39.990Z,102676.59
2023-01-22T10:19:45.774Z,102682.56
2023-01-22T10:22:48.191Z,102677.38
2023-01-22T10:25:53.182Z,102682.78
2023-01-22T10:28:57.412Z,102687.16
2023-01-22T10:32:02.730Z,102685.97
2023-01-22T10:35:07.950Z,102687.28
2023-01-22T10:38:22.155Z,102673.03
2023-01-22T10:41:25.017Z,102675.13
2023-01-22T10:44:26.708Z,102672.69
2023-01-22T10:47:30.022Z,102678.44
2023-01-22T10:50:31.812Z,102684.81
2023-01-22T10:53:36.986Z,102684.72
2023-01-22T10:56:40.836Z,102683.88
2023-01-22T10:59:49.013Z,102684.47
2023-01-22T11:02:51.903Z,102688.13
2023-01-22T11:06:00.993Z,102684.72
2023-01-22T11:09:08.848Z,102685.06
2023-01-22T11:12:18.742Z,102679.41
2023-01-22T11:15:25.334Z,102681.41
2023-01-22T11:18:31.959Z,102683.81
2023-01-22T11:21:37.559Z,102685.31
2023-01-22T11:24:46.351Z,102692.63
2023-01-22T11:28:04.625Z,102682.28
2023-01-22T11:31:28.843Z,102686.44
2023-01-22T11:34:51.813Z,102680.06
2023-01-22T11:38:16.280Z,102672.75
2023-01-22T11:41:31.447Z,102678.38
2023-01-22T11:44:52.281Z,102671.91
2023-01-22T11:48:13.194Z,102679.50
2023-01-22T11:51:29.313Z,102667.44
2023-01-22T11:54:56.170Z,102674.13
2023-01-22T11:58:08.373Z,102672.00
2023-01-22T12:01:30.041Z,102676.75
2023-01-22T12:04:51.948Z,102672.53
2023-01-22T12:08:23.629Z,102673.53
2023-01-22T12:11:52.674Z,102680.66
2023-01-22T12:15:27.591Z,102682.47
2023-01-22T12:18:59.591Z,102680.09
2023-01-22T12:22:09.043Z,102684.28
2023-01-22T12:25:17.695Z,102679.66
2023-01-22T12:28:25.752Z,102678.91
2023-01-22T12:31:32.923Z,102677.69
2023-01-22T12:38:16.615Z,102679.88
2023-01-22T12:41:33.355Z,102682.53
2023-01-22T12:44:47.660Z,102679.13
2023-01-22T12:47:56.233Z,102688.72
2023-01-22T12:50:59.651Z,102686.56
2023-01-22T12:54:10.409Z,102687.31
2023-01-22T12:57:23.511Z,102692.25
2023-01-22T13:00:35.157Z,102685.50
2023-01-22T13:03:38.037Z,102690.75
2023-01-22T13:06:44.087Z,102690.66
2023-01-22T13:09:47.488Z,102691.44
2023-01-22T13:12:55.018Z,102692.16
2023-01-22T13:16:02.708Z,102686.69
2023-01-22T13:19:18.643Z,102698.38
2023-01-22T13:22:23.852Z,102698.59
2023-01-22T13:25:28.117Z,102701.06
2023-01-22T13:28:30.913Z,102698.88
2023-01-22T13:31:35.204Z,102698.34
2023-01-22T13:34:36.583Z,102689.06
2023-01-22T13:41:06.672Z,102684.03
2023-01-22T13:44:18.026Z,102684.47
2023-01-22T13:47:28.497Z,102686.00
2023-01-22T13:50:31.058Z,102686.00
2023-01-22T13:53:41.545Z,102690.97
2023-01-22T13:56:43.597Z,102688.19
2023-01-22T13:59:54.569Z,102690.81
2023-01-22T14:02:56.772Z,102694.59
2023-01-22T14:06:08.636Z,102692.53
2023-01-22T14:09:10.270Z,102698.88
2023-01-22T14:12:17.939Z,102690.47
2023-01-22T14:15:21.234Z,102701.75
2023-01-22T14:18:24.035Z,102706.31
2023-01-22T14:21:25.327Z,102714.53
2023-01-22T14:24:28.065Z,102724.59
2023-01-22T14:27:41.257Z,102721.56
2023-01-22T14:30:45.280Z,102719.97
2023-01-22T14:33:46.695Z,102720.53
2023-01-22T14:36:49.983Z,102723.69
2023-01-22T14:39:51.692Z,102726.00
2023-01-22T14:42:54.316Z,102728.03
2023-01-22T14:45:56.977Z,102728.25
2023-01-22T14:49:02.310Z,102730.75
2023-01-22T14:52:04.002Z,102730.19
2023-01-22T14:55:08.552Z,102731.75
2023-01-22T14:58:10.144Z,102730.06
2023-01-22T15:01:17.270Z,102735.00
2023-01-22T15:04:18.689Z,102727.41
2023-01-22T15:07:22.359Z,102734.38
2023-01-22T15:10:25.394Z,102736.59
2023-01-22T15:13:27.068Z,102729.50
2023-01-22T15:16:29.325Z,102727.47
2023-01-22T15:19:40.740Z,102732.28
2023-01-22T15:22:44.453Z,102736.69
2023-01-22T15:25:55.903Z,102735.69
2023-01-22T15:28:57.470Z,102741.91
2023-01-22T15:32:01.832Z,102747.44
2023-01-22T15:35:03.523Z,102753.13
2023-01-22T15:38:06.327Z,102756.75
2023-01-22T15:41:18.445Z,102763.78
2023-01-22T15:44:22.515Z,102767.88
2023-01-22T15:47:24.911Z,102772.84
2023-01-22T15:50:28.503Z,102773.72
2023-01-22T15:53:29.801Z,102787.66
2023-01-22T15:56:36.546Z,102777.97
2023-01-22T15:59:40.623Z,102786.38
2023-01-22T16:02:43.169Z,102784.25
2023-01-22T16:05:44.673Z,102783.59
2023-01-22T16:08:48.129Z,102786.69
2023-01-22T16:11:49.533Z,102783.28
2023-01-22T16:14:52.128Z,102792.03
2023-01-22T16:17:54.452Z,102785.84
2023-01-22T16:21:00.754Z,102788.25
2023-01-22T16:24:02.752Z,102786.78
2023-01-22T16:27:05.323Z,102801.94
2023-01-22T16:30:09.008Z,102797.22
2023-01-22T16:33:19.805Z,102799.94
2023-01-22T16:36:23.201Z,102801.34
2023-01-22T16:39:26.370Z,102804.75
2023-01-22T16:42:29.030Z,102813.31
2023-01-22T16:45:31.648Z,102822.88
2023-01-22T16:48:33.706Z,102819.47
2023-01-22T16:51:36.826Z,102833.38
2023-01-22T16:54:38.881Z,102831.91
2023-01-22T16:57:41.413Z,102834.09
2023-01-22T17:00:43.035Z,102838.50
2023-01-22T17:03:46.248Z,102837.13
2023-01-22T17:06:49.411Z,102830.75
2023-01-22T17:09:51.333Z,102843.06
2023-01-22T17:12:52.640Z,102836.78
2023-01-22T17:15:56.105Z,102846.41
2023-01-22T17:19:00.720Z,102844.94
2023-01-22T17:22:02.536Z,102846.47
2023-01-22T17:25:06.141Z,102846.41
2023-01-22T17:28:08.153Z,102844.53
2023-01-22T17:31:12.455Z,102851.97
2023-01-22T17:34:15.131Z,102857.41
2023-01-22T17:37:17.909Z,102855.50
2023-01-22T17:40:19.806Z,102853.59
2023-01-22T17:43:21.113Z,102855.44
2023-01-22T17:46:25.466Z,102853.38
2023-01-22T17:49:28.710Z,102851.81
2023-01-22T17:52:30.325Z,102862.19
2023-01-22T17:55:33.240Z,102856.97
2023-01-22T17:58:34.947Z,102858.84
2023-01-22T18:01:39.225Z,102869.34
2023-01-22T18:04:41.551Z,102872.00
2023-01-22T18:07:42.863Z,102876.00
2023-01-22T18:10:44.260Z,102882.03
2023-01-22T18:13:46.568Z,102892.72
2023-01-22T18:16:49.433Z,102895.69
2023-01-22T18:19:51.406Z,102899.41
2023-01-22T18:22:53.576Z,102897.66
2023-01-22T18:25:58.524Z,102903.66
2023-01-22T18:29:00.062Z,102904.59
2023-01-22T18:32:02.629Z,102901.38
2023-01-22T18:35:05.755Z,102906.41
2023-01-22T18:38:07.123Z,102902.97
2023-01-22T18:41:10.656Z,102906.25
2023-01-22T18:44:14.053Z,102911.13
2023-01-22T18:47:16.593Z,102899.28
2023-01-22T18:50:19.082Z,102905.56
2023-01-22T18:53:21.834Z,102907.97
2023-01-22T18:56:24.743Z,102911.97
2023-01-22T18:59:27.336Z,102913.53
2023-01-22T19:02:28.763Z,102910.66
2023-01-22T19:05:30.848Z,102912.06
2023-01-22T19:08:34.116Z,102911.22
2023-01-22T19:11:38.013Z,102919.91
2023-01-22T19:14:40.514Z,102928.19
2023-01-22T19:17:43.052Z,102929.31
2023-01-22T19:20:45.119Z,102931.28
2023-01-22T19:23:51.231Z,102923.56
2023-01-22T19:26:54.047Z,102934.28
2023-01-22T19:29:55.491Z,102931.13
2023-01-22T19:32:58.183Z,102924.16
2023-01-22T19:36:00.299Z,102924.75
2023-01-22T19:39:06.476Z,102918.72
2023-01-22T19:42:07.842Z,102921.63
2023-01-22T19:45:09.736Z,102930.63
2023-01-22T19:48:11.295Z,102935.59
2023-01-22T19:54:35.641Z,102939.06
2023-01-22T20:00:59.850Z,102938.91
2023-01-22T20:04:04.090Z,102938.06
2023-01-22T20:07:06.028Z,102930.31
2023-01-22T20:10:09.370Z,102931.28
2023-01-22T20:13:11.179Z,102940.88
2023-01-22T20:16:21.591Z,102942.75
2023-01-22T20:19:24.491Z,102948.03
2023-01-22T20:22:26.444Z,102949.13
2023-01-22T20:25:30.891Z,102944.88
2023-01-22T20:28:33.861Z,102949.59
2023-01-22T20:31:36.606Z,102955.00
2023-01-22T20:34:39.176Z,102958.88
2023-01-22T20:37:41.144Z,102966.00
2023-01-22T20:40:45.442Z,102969.91
2023-01-22T20:43:46.807Z,102972.31
2023-01-22T20:50:09.977Z,102973.63
2023-01-22T20:53:11.899Z,102979.94
2023-01-22T20:56:15.920Z,102980.50
2023-01-22T20:59:18.550Z,102981.38
2023-01-22T21:02:19.934Z,102977.06
2023-01-22T21:05:21.523Z,102992.34
2023-01-22T21:08:23.857Z,102984.63
2023-01-22T21:11:28.757Z,102988.38
2023-01-22T21:14:30.207Z,102998.66
2023-01-22T21:17:35.135Z,103002.34
2023-01-22T21:20:37.153Z,103000.50
2023-01-22T21:23:40.507Z,102997.66
2023-01-22T21:26:43.358Z,103006.22
2023-01-22T21:29:44.672Z,103004.31
2023-01-22T21:32:51.186Z,103003.22
2023-01-22T21:35:52.534Z,103009.03
2023-01-22T21:38:56.015Z,103009.34
2023-01-22T21:42:13.719Z,103014.47
2023-01-22T21:45:34.585Z,103019.63
2023-01-22T21:48:36.224Z,103019.28
2023-01-22T21:51:38.795Z,103021.16
2023-01-22T21:54:41.522Z,103018.16
2023-01-22T21:57:44.682Z,103015.06
2023-01-22T22:00:46.336Z,103010.06
2023-01-22T22:03:49.476Z,103020.88
2023-01-22T22:06:50.923Z,103024.72
2023-01-22T22:09:54.145Z,103024.44
2023-01-22T22:12:55.663Z,103022.84
2023-01-22T22:16:00.938Z,103026.00
2023-01-22T22:19:06.154Z,103018.72
2023-01-22T22:22:09.004Z,103020.16
2023-01-22T22:25:12.278Z,103031.13
2023-01-22T22:28:15.245Z,103033.97
2023-01-22T22:31:16.840Z,103039.84
2023-01-22T22:34:19.521Z,103046.09
2023-01-22T22:37:21.677Z,103044.69
2023-01-22T22:40:25.183Z,103046.09
2023-01-22T22:46:47.946Z,103047.63
2023-01-22T22:49:50.504Z,103055.94
2023-01-22T22:52:51.814Z,103053.50
2023-01-22T22:55:55.170Z,103043.25
2023-01-22T22:58:59.400Z,103045.94
2023-01-22T23:02:00.751Z,103043.22
2023-01-22T23:05:03.246Z,103052.66
2023-01-22T23:08:05.845Z,103057.47
2023-01-22T23:11:10.850Z,103054.75
2023-01-22T23:14:13.685Z,103059.63
2023-01-22T23:17:15.008Z,103058.47
2023-01-22T23:20:18.106Z,103061.63
2023-01-22T23:23:19.584Z,103064.91
2023-01-22T23:26:28.591Z,103068.16
2023-01-22T23:29:29.886Z,103078.28
2023-01-22T23:32:32.409Z,103083.16
2023-01-22T23:35:35.023Z,103092.53
2023-01-22T23:38:37.857Z,103100.81
2023-01-22T23:41:40.074Z,103099.88
2023-01-22T23:44:42.818Z,103103.28
2023-01-22T23:47:44.111Z,103105.28
2023-01-22T23:50:47.359Z,103101.69
2023-01-22T23:53:50.877Z,103102.69
2023-01-22T23:56:54.097Z,103108.94
